Time;durP1;ratioP1;P1;durP2;ratioP2;P2;SDS_P1;SDS_P2;PMS_P1;PMS_P2;Temp;Humidity;BMP_temperature;BMP_pressure;BME280_temperature;BME280_humidity;BME280_pressure;Samples;Min_cycle;Max_cycle;Signal;HPM_P1;HPM_P2
2021/10/18 00:01:56;;;;;;;23.67;10.18;;;;;;;;;;5072581;28;20253;-83
2021/10/18 00:04:23;;;;;;;21.55;11.57;;;;;;;;;;5071852;28;20990;-82
2021/10/18 00:06:50;;;;;;;19.95;10.65;;;;;;;;;;5070722;28;20286;-83
2021/10/18 00:09:18;;;;;;;19.42;10.68;;;;;;;;;;5072206;28;20265;-82
2021/10/18 00:11:45;;;;;;;21.13;10.75;;;;;;;;;;5072145;28;20647;-82
2021/10/18 00:14:12;;;;;;;21.42;10.38;;;;;;;;;;5072042;28;20254;-83
2021/10/18 00:16:44;;;;;;;20.85;12.70;;;7.30;99.90;;;;;;5070776;28;20279;-83
2021/10/18 00:19:11;;;;;;;21.00;11.63;;;;;;;;;;5071663;28;20223;-82
2021/10/18 00:21:38;;;;;;;17.70;12.30;;;7.10;99.90;;;;;;5071700;28;20287;-82
2021/10/18 00:24:06;;;;;;;16.40;10.25;;;7.10;99.90;;;;;;5070936;28;20204;-82
2021/10/18 00:26:33;;;;;;;21.63;12.85;;;;;;;;;;5071103;28;20668;-82
2021/10/18 00:29:00;;;;;;;20.65;13.13;;;;;;;;;;5054949;28;20255;-82
2021/10/18 00:31:27;;;;;;;23.27;12.38;;;;;;;;;;5056606;28;20253;-82
2021/10/18 00:33:56;;;;;;;18.52;11.68;;;;;;;;;;5072107;28;20563;-82
2021/10/18 00:36:23;;;;;;;22.95;12.60;;;;;;;;;;5071094;28;20290;-82
2021/10/18 00:38:51;;;;;;;23.90;11.82;;;;;;;;;;5072040;28;20257;-82
2021/10/18 00:41:19;;;;;;;20.17;11.70;;;;;;;;;;5072079;28;20269;-82
2021/10/18 00:43:49;;;;;;;20.42;11.50;;;;;;;;;;5064711;28;20252;-82
2021/10/18 00:46:20;;;;;;;24.23;12.73;;;;;;;;;;5071679;28;20187;-82
2021/10/18 00:48:47;;;;;;;20.88;12.95;;;;;;;;;;5071285;28;20196;-82
2021/10/18 00:51:16;;;;;;;21.20;13.40;;;7.00;99.90;;;;;;5071795;28;20203;-82
2021/10/18 00:53:44;;;;;;;27.58;18.42;;;5.50;99.90;;;;;;5070466;28;20220;-82
2021/10/18 00:56:11;;;;;;;27.02;16.05;;;;;;;;;;5070393;28;20728;-83
2021/10/18 00:58:39;;;;;;;18.02;12.23;;;;;;;;;;5070553;28;20283;-82
2021/10/18 01:01:07;;;;;;;30.38;13.82;;;7.20;99.90;;;;;;5070334;28;20198;-82
2021/10/18 01:03:34;;;;;;;23.40;13.45;;;;;;;;;;5069975;28;20608;-82
2021/10/18 01:06:02;;;;;;;30.65;13.45;;;;;;;;;;5070244;28;20268;-83
2021/10/18 01:08:31;;;;;;;22.17;12.95;;;;;;;;;;5069780;28;20200;-82
2021/10/18 01:10:58;;;;;;;22.52;12.82;;;;;;;;;;5070618;28;20384;-83
2021/10/18 01:13:25;;;;;;;22.17;13.43;;;;;;;;;;5071053;28;20230;-82
2021/10/18 01:15:52;;;;;;;30.10;14.88;;;;;;;;;;5070749;28;20219;-82
2021/10/18 01:18:19;;;;;;;22.90;14.02;;;;;;;;;;5070251;28;20224;-82
2021/10/18 01:20:48;;;;;;;25.58;12.90;;;7.30;99.90;;;;;;5070806;28;20216;-82
2021/10/18 01:23:15;;;;;;;24.90;12.70;;;;;;;;;;5069463;28;20552;-82
2021/10/18 01:25:42;;;;;;;25.45;12.93;;;;;;;;;;5069836;28;20195;-83
2021/10/18 01:28:10;;;;;;;23.90;15.52;;;7.20;99.90;;;;;;5069946;28;20206;-83
2021/10/18 01:30:37;;;;;;;29.55;13.55;;;;;;;;;;5069994;28;20228;-82
2021/10/18 01:33:04;;;;;;;28.40;15.15;;;;;;;;;;5071195;28;20573;-83
2021/10/18 01:35:32;;;;;;;22.33;11.10;;;7.30;99.90;;;;;;5069192;28;20281;-82
2021/10/18 01:38:00;;;;;;;21.77;13.23;;;7.30;99.90;;;;;;5067277;28;20263;-83
2021/10/18 01:40:28;;;;;;;19.00;12.68;;;7.30;99.90;;;;;;5067402;28;20215;-83
2021/10/18 01:42:55;;;;;;;20.75;12.65;;;;;;;;;;5070282;28;20228;-83
2021/10/18 01:45:23;;;;;;;26.67;15.60;;;;;;;;;;5070128;28;20282;-82
2021/10/18 01:47:50;;;;;;;22.95;14.45;;;;;;;;;;5069751;28;20200;-83
2021/10/18 01:50:19;;;;;;;26.88;14.50;;;;;;;;;;5070292;28;20212;-83
2021/10/18 01:52:47;;;;;;;26.48;16.30;;;7.30;99.90;;;;;;5069624;28;20276;-84
2021/10/18 01:55:16;;;;;;;26.70;14.95;;;7.20;99.90;;;;;;5070009;28;20680;-82
2021/10/18 01:57:43;;;;;;;25.42;14.10;;;;;;;;;;5069556;28;20196;-82
2021/10/18 02:00:11;;;;;;;26.05;13.85;;;;;;;;;;5069356;28;20242;-82
2021/10/18 02:02:38;;;;;;;23.10;13.65;;;;;;;;;;5070230;28;20277;-82
2021/10/18 02:05:06;;;;;;;33.65;15.02;;;;;;;;;;5069039;28;20196;-82
2021/10/18 02:07:34;;;;;;;24.77;14.80;;;7.40;99.90;;;;;;5069802;28;20206;-82
2021/10/18 02:10:01;;;;;;;24.48;15.73;;;;;;;;;;5069196;28;20258;-83
2021/10/18 02:12:30;;;;;;;25.63;15.18;;;;;;;;;;5070278;28;20577;-82
2021/10/18 02:14:57;;;;;;;26.35;13.13;;;;;;;;;;5069104;28;20219;-83
2021/10/18 02:17:24;;;;;;;27.25;14.80;;;;;;;;;;5069124;28;20238;-82
2021/10/18 02:19:51;;;;;;;28.52;14.07;;;;;;;;;;5069537;28;20289;-82
2021/10/18 02:22:19;;;;;;;30.13;15.27;;;;;;;;;;5070238;28;20288;-82
2021/10/18 02:24:46;;;;;;;32.38;15.77;;;;;;;;;;5068963;28;20282;-82
2021/10/18 02:27:13;;;;;;;24.48;14.95;;;;;;;;;;5069304;28;20606;-82
2021/10/18 02:29:42;;;;;;;25.75;14.38;;;7.50;99.90;;;;;;5068917;28;20298;-82
2021/10/18 02:32:09;;;;;;;23.50;14.10;;;;;;;;;;5069351;28;20235;-82
2021/10/18 02:34:36;;;;;;;26.02;14.43;;;;;;;;;;5064079;28;20220;-82
2021/10/18 02:37:03;;;;;;;26.02;16.63;;;;;;;;;;5069225;28;20223;-82
2021/10/18 02:39:30;;;;;;;32.08;16.75;;;;;;;;;;5069530;28;20672;-82
2021/10/18 02:41:57;;;;;;;27.90;14.60;;;;;;;;;;5068882;28;20231;-83
2021/10/18 02:44:25;;;;;;;32.08;16.88;;;;;;;;;;5069541;28;20286;-82
2021/10/18 02:46:53;;;;;;;31.73;15.15;;;9.50;99.90;;;;;;5068970;28;20952;-83
2021/10/18 02:49:21;;;;;;;19.38;13.50;;;;;;;;;;5069954;28;20936;-82
2021/10/18 02:51:48;;;;;;;26.20;15.15;;;;;;;;;;5069513;28;20649;-82
2021/10/18 02:54:15;;;;;;;34.28;14.85;;;;;;;;;;5068888;28;20289;-82
2021/10/18 02:56:43;;;;;;;26.45;14.65;;;;;;;;;;5068879;28;20226;-82
2021/10/18 02:59:10;;;;;;;26.20;15.48;;;;;;;;;;5068722;28;20202;-82
2021/10/18 03:01:37;;;;;;;24.13;15.18;;;;;;;;;;5069364;28;20286;-82
2021/10/18 03:04:06;;;;;;;28.00;13.98;;;;;;;;;;5069507;28;20245;-82
2021/10/18 03:06:33;;;;;;;20.05;13.27;;;;;;;;;;5068869;28;20223;-82
2021/10/18 03:09:00;;;;;;;23.52;15.25;;;;;;;;;;5069196;28;20230;-82
2021/10/18 03:11:27;;;;;;;28.88;15.30;;;;;;;;;;5069072;28;20592;-82
2021/10/18 03:13:55;;;;;;;28.48;15.93;;;;;;;;;;5069126;28;20216;-82
2021/10/18 03:16:22;;;;;;;28.30;16.27;;;;;;;;;;5069329;28;20266;-82
2021/10/18 03:18:49;;;;;;;23.83;14.30;;;;;;;;;;5069469;28;20216;-82
2021/10/18 03:21:17;;;;;;;28.42;15.20;;;7.30;99.90;;;;;;5069504;28;20278;-82
2021/10/18 03:23:45;;;;;;;23.83;14.80;;;;;;;;;;5069099;28;20758;-83
2021/10/18 03:26:12;;;;;;;35.15;15.15;;;;;;;;;;5068524;28;20238;-82
2021/10/18 03:28:39;;;;;;;31.90;14.95;;;;;;;;;;5064844;28;20319;-83
2021/10/18 03:31:06;;;;;;;37.03;15.25;;;;;;;;;;5048345;28;20246;-83
2021/10/18 03:33:35;;;;;;;30.27;16.50;;;7.50;99.90;;;;;;5049423;28;20220;-83
2021/10/18 03:36:02;;;;;;;28.90;16.15;;;;;;;;;;5049333;28;20270;-82
2021/10/18 03:38:31;;;;;;;25.23;14.05;;;7.60;99.90;;;;;;5048704;28;20257;-82
2021/10/18 03:40:59;;;;;;;25.25;14.32;;;;;;;;;;5061094;28;20240;-82
2021/10/18 03:43:26;;;;;;;29.88;14.80;;;;;;;;;;5072756;28;20551;-83
2021/10/18 03:45:53;;;;;;;25.33;13.63;;;;;;;;;;5072279;28;20242;-82
2021/10/18 03:48:20;;;;;;;23.60;13.77;;;;;;;;;;5072391;28;20204;-82
2021/10/18 03:50:48;;;;;;;22.50;13.10;;;;;;;;;;5072496;28;20658;-83
2021/10/18 03:53:15;;;;;;;28.73;16.13;;;;;;;;;;5053501;28;20327;-82
2021/10/18 03:55:43;;;;;;;28.35;13.75;;;;;;;;;;5053007;28;20197;-82
2021/10/18 03:58:10;;;;;;;25.40;13.57;;;;;;;;;;5070166;28;20280;-83
2021/10/18 04:00:38;;;;;;;28.88;14.75;;;;;;;;;;5072277;28;20192;-82
2021/10/18 04:03:05;;;;;;;21.60;14.43;;;;;;;;;;5072291;28;20204;-83
2021/10/18 04:05:32;;;;;;;26.15;14.73;;;;;;;;;;5072583;28;20311;-83
2021/10/18 04:07:59;;;;;;;25.25;16.10;;;;;;;;;;5071258;28;20207;-83
2021/10/18 04:10:27;;;;;;;24.42;14.00;;;;;;;;;;5072529;28;20202;-82
2021/10/18 04:12:55;;;;;;;31.45;15.25;;;;;;;;;;5071768;28;20253;-82
2021/10/18 04:15:23;;;;;;;25.02;14.55;;;;;;;;;;5071943;28;20616;-82
2021/10/18 04:17:50;;;;;;;25.10;14.80;;;;;;;;;;5071370;28;20240;-82
2021/10/18 04:20:17;;;;;;;22.02;13.50;;;;;;;;;;5071490;28;20657;-82
2021/10/18 04:22:46;;;;;;;26.63;14.40;;;;;;;;;;5072537;28;20626;-82
2021/10/18 04:25:13;;;;;;;20.02;12.43;;;;;;;;;;5066514;28;20707;-82
2021/10/18 04:27:41;;;;;;;21.75;12.73;;;;;;;;;;5071389;28;20203;-82
2021/10/18 04:30:12;;;;;;;32.35;14.00;;;7.60;99.90;;;;;;5071220;28;20934;-82
2021/10/18 04:32:39;;;;;;;20.00;13.10;;;;;;;;;;5072003;28;20289;-83
2021/10/18 04:35:07;;;;;;;29.42;16.13;;;;;;;;;;5070664;28;20227;-83
2021/10/18 04:37:34;;;;;;;26.70;16.17;;;;;;;;;;5066262;28;20259;-83
2021/10/18 04:40:01;;;;;;;30.83;14.63;;;;;;;;;;5071538;28;20602;-83
2021/10/18 04:42:29;;;;;;;27.33;15.90;;;;;;;;;;5070844;28;20222;-83
2021/10/18 04:44:56;;;;;;;27.67;16.17;;;;;;;;;;5071378;28;20188;-83
2021/10/18 04:47:25;;;;;;;40.38;17.48;;;;;;;;;;5070363;28;20199;-83
2021/10/18 04:49:52;;;;;;;28.75;16.45;;;;;;;;;;5072528;28;20192;-83
2021/10/18 04:52:19;;;;;;;29.80;17.42;;;;;;;;;;5071423;28;20230;-83
2021/10/18 04:54:46;;;;;;;28.98;15.77;;;;;;;;;;5070711;28;20314;-83
2021/10/18 04:57:13;;;;;;;28.55;14.95;;;;;;;;;;5070808;28;20220;-83
2021/10/18 04:59:41;;;;;;;29.00;17.15;;;;;;;;;;5071187;28;20275;-83
2021/10/18 05:02:09;;;;;;;21.95;13.52;;;;;;;;;;5071100;28;20242;-83
2021/10/18 05:04:37;;;;;;;24.10;14.07;;;7.80;99.90;;;;;;5071163;28;20192;-83
2021/10/18 05:07:04;;;;;;;24.65;13.30;;;;;;;;;;5070846;28;20754;-83
2021/10/18 05:09:32;;;;;;;26.92;14.40;;;;;;;;;;5070840;28;20298;-83
2021/10/18 05:11:59;;;;;;;24.42;13.13;;;;;;;;;;5071381;28;20235;-83
2021/10/18 05:14:26;;;;;;;22.77;14.45;;;7.90;99.90;;;;;;5069255;28;20306;-82
2021/10/18 05:16:55;;;;;;;22.13;13.90;;;;;;;;;;5070090;28;20258;-83
2021/10/18 05:19:22;;;;;;;22.07;13.50;;;;;;;;;;5070363;28;20664;-83
2021/10/18 05:21:51;;;;;;;24.95;14.38;;;7.90;99.90;;;;;;5071074;28;20653;-83
2021/10/18 05:24:18;;;;;;;21.20;12.40;;;;;;;;;;5070627;28;20215;-82
2021/10/18 05:26:45;;;;;;;25.03;13.60;;;;;;;;;;5069881;28;20220;-82
2021/10/18 05:29:12;;;;;;;25.97;16.40;;;;;;;;;;5068892;28;20691;-83
2021/10/18 05:31:39;;;;;;;21.23;13.52;;;;;;;;;;5059357;28;20737;-83
2021/10/18 05:34:07;;;;;;;22.00;13.90;;;;;;;;;;5050828;28;20231;-83
2021/10/18 05:36:34;;;;;;;21.27;13.38;;;;;;;;;;5067805;28;20652;-82
2021/10/18 05:39:02;;;;;;;24.50;13.70;;;;;;;;;;5069746;28;20653;-82
2021/10/18 05:41:30;;;;;;;19.73;13.47;;;;;;;;;;5055955;28;20867;-83
2021/10/18 05:43:57;;;;;;;17.77;12.52;;;;;;;;;;5055947;28;20639;-82
2021/10/18 05:46:24;;;;;;;22.53;13.93;;;;;;;;;;5049928;28;20211;-82
2021/10/18 05:48:51;;;;;;;25.00;15.33;;;;;;;;;;5059368;28;20658;-83
2021/10/18 05:51:19;;;;;;;25.85;15.60;;;;;;;;;;5068283;28;20622;-83
2021/10/18 05:53:46;;;;;;;33.27;16.03;;;;;;;;;;5060191;28;20223;-83
2021/10/18 05:56:14;;;;;;;31.47;14.83;;;8.10;99.90;;;;;;5068797;28;20645;-83
2021/10/18 05:58:42;;;;;;;32.00;16.73;;;;;;;;;;5064415;28;20780;-83
2021/10/18 06:01:09;;;;;;;30.90;15.95;;;;;;;;;;5067815;28;20257;-83
2021/10/18 06:03:37;;;;;;;36.90;17.80;;;;;;;;;;5060080;28;20341;-83
2021/10/18 06:06:07;;;;;;;88.43;18.87;;;;;;;;;;5067348;28;20622;-83
2021/10/18 06:08:34;;;;;;;73.57;20.60;;;;;;;;;;5067298;28;20626;-82
2021/10/18 06:11:03;;;;;;;33.37;16.57;;;;;;;;;;5069087;28;20618;-83
2021/10/18 06:13:31;;;;;;;26.70;15.93;;;8.10;99.90;;;;;;5069779;28;20992;-83
2021/10/18 06:15:59;;;;;;;26.50;15.40;;;;;;;;;;5069688;28;20267;-83
2021/10/18 06:18:26;;;;;;;29.27;16.53;;;;;;;;;;5067566;28;20724;-82
2021/10/18 06:20:55;;;;;;;30.25;15.57;;;8.20;99.90;;;;;;5067965;28;20626;-82
2021/10/18 06:23:23;;;;;;;29.93;15.53;;;8.10;99.90;;;;;;5043854;28;20680;-82
2021/10/18 06:25:51;;;;;;;46.87;18.37;;;;;;;;;;5065812;28;20631;-84
2021/10/18 06:28:19;;;;;;;49.00;19.48;;;;;;;;;;5065397;28;20622;-83
2021/10/18 06:30:47;;;;;;;37.77;17.33;;;8.20;99.90;;;;;;5062938;28;20250;-85
2021/10/18 06:33:15;;;;;;;26.83;14.80;;;;;;;;;;5069225;28;20610;-83
2021/10/18 06:35:42;;;;;;;28.67;16.80;;;;;;;;;;5067443;28;21065;-83
2021/10/18 06:38:15;;;;;;;28.70;16.90;;;8.40;99.90;;;;;;5058216;28;20664;-83
2021/10/18 06:40:42;;;;;;;28.27;15.87;;;;;;;;;;5069762;28;20663;-83
2021/10/18 06:43:10;;;;;;;29.13;15.30;;;;;;;;;;5065443;28;20670;-83
2021/10/18 06:45:38;;;;;;;29.30;16.60;;;;;;;;;;5068812;28;21056;-83
2021/10/18 06:48:07;;;;;;;24.43;14.17;;;8.20;99.90;;;;;;5065093;28;20660;-83
2021/10/18 06:50:34;;;;;;;26.43;15.17;;;8.50;99.90;;;;;;5066752;28;20622;-82
2021/10/18 06:53:01;;;;;;;29.83;15.87;;;;;;;;;;5059266;28;20670;-83
2021/10/18 06:55:29;;;;;;;27.43;14.47;;;;;;;;;;5068263;28;21057;-82
2021/10/18 06:57:56;;;;;;;28.57;16.20;;;;;;;;;;5068289;28;20733;-83
2021/10/18 07:00:24;;;;;;;31.97;15.00;;;;;;;;;;5067108;28;20969;-82
2021/10/18 07:02:51;;;;;;;26.97;15.97;;;;;;;;;;5068028;28;20695;-83
2021/10/18 07:05:20;;;;;;;20.93;13.30;;;;;;;;;;5069490;28;20653;-82
2021/10/18 07:07:47;;;;;;;22.73;15.10;;;;;;;;;;5068149;28;20647;-82
2021/10/18 07:10:14;;;;;;;19.40;13.37;;;;;;;;;;5066392;28;20740;-81
2021/10/18 07:12:41;;;;;;;17.40;13.13;;;;;;;;;;5065234;28;20625;-82
2021/10/18 07:15:10;;;;;;;21.67;13.53;;;8.80;99.90;;;;;;5054765;28;20694;-83
2021/10/18 07:17:37;;;;;;;19.50;13.40;;;;;;;;;;5061909;28;21173;-84
2021/10/18 07:20:06;;;;;;;21.17;14.60;;;8.50;99.90;;;;;;5069799;28;20706;-83
2021/10/18 07:22:42;;;;;;;20.23;14.10;;;;;;;;;;5073137;28;20649;-83
2021/10/18 07:25:10;;;;;;;17.93;11.73;;;8.70;99.90;;;;;;5076615;28;21018;-81
2021/10/18 07:27:37;;;;;;;19.33;13.20;;;;;;;;;;5067599;28;20699;-82
2021/10/18 07:30:05;;;;;;;22.03;13.63;;;;;;;;;;5070575;28;20633;-82
2021/10/18 07:32:34;;;;;;;23.67;13.70;;;;;;;;;;5069711;28;20714;-82
2021/10/18 07:35:01;;;;;;;17.43;11.73;;;;;;;;;;5070115;28;20669;-82
2021/10/18 07:37:29;;;;;;;16.43;13.03;;;;;;;;;;5072165;28;21009;-83
2021/10/18 07:39:58;;;;;;;21.93;12.83;;;8.90;99.90;;;;;;5072382;28;20630;-82
2021/10/18 07:42:25;;;;;;;21.93;13.20;;;;;;;;;;5070615;28;20632;-82
2021/10/18 07:44:53;;;;;;;17.23;12.90;;;;;;;;;;5073150;28;21019;-83
2021/10/18 07:47:21;;;;;;;20.60;14.80;;;8.90;99.90;;;;;;5068008;28;20645;-82
2021/10/18 07:49:49;;;;;;;23.90;14.50;;;8.90;99.90;;;;;;5058160;28;20654;-82
2021/10/18 07:52:17;;;;;;;17.50;11.73;;;;;;;;;;5067817;28;21234;-83
2021/10/18 07:54:46;;;;;;;17.00;11.20;;;8.90;99.90;;;;;;5068026;28;21248;-82
2021/10/18 07:57:14;;;;;;;21.80;14.77;;;9.00;99.90;;;;;;5087603;28;20710;-83
2021/10/18 07:59:42;;;;;;;18.90;13.77;;;;;;;;;;5069436;28;20656;-83
2021/10/18 08:02:09;;;;;;;21.30;15.43;;;;;;;;;;5072013;28;21072;-83
2021/10/18 08:04:36;;;;;;;30.30;14.20;;;;;;;;;;5071523;28;20621;-83
2021/10/18 08:07:03;;;;;;;26.77;13.60;;;8.30;99.90;;;;;;5071120;28;21170;-82
2021/10/18 08:09:30;;;;;;;22.20;15.93;;;;;;;;;;5071278;28;20683;-83
2021/10/18 08:11:58;;;;;;;24.27;15.37;;;;;;;;;;5070706;28;20622;-81
2021/10/18 08:14:26;;;;;;;22.63;15.80;;;;;;;;;;5068224;28;20723;-83
2021/10/18 08:16:53;;;;;;;23.20;15.00;;;;;;;;;;5072072;28;20661;-82
2021/10/18 08:19:20;;;;;;;24.70;16.07;;;;;;;;;;5072251;28;20617;-83
2021/10/18 08:21:48;;;;;;;18.80;14.50;;;;;;;;;;5072441;28;20644;-83
2021/10/18 08:24:15;;;;;;;23.13;14.27;;;;;;;;;;5071381;28;20679;-82
2021/10/18 08:26:42;;;;;;;20.07;13.80;;;;;;;;;;5068665;28;20649;-84
2021/10/18 08:29:09;;;;;;;23.23;15.33;;;;;;;;;;5068480;28;20649;-83
2021/10/18 08:31:38;;;;;;;20.23;14.67;;;;;;;;;;5072469;28;20613;-83
2021/10/18 08:34:05;;;;;;;26.27;15.93;;;;;;;;;;5071942;28;20618;-83
2021/10/18 08:36:36;;;;;;;20.23;13.73;;;;;;;;;;5071738;28;20734;-84
2021/10/18 08:41:55;;;;;;;20.90;12.97;;;9.30;99.90;;;;;;5070653;28;20633;-84
2021/10/18 08:44:22;;;;;;;20.43;13.03;;;;;;;;;;5071375;28;20626;-84
2021/10/18 08:46:52;;;;;;;17.20;13.07;;;9.50;99.90;;;;;;5070057;28;20622;-83
2021/10/18 08:49:21;;;;;;;22.80;14.33;;;9.40;99.90;;;;;;5065804;28;21064;-84
2021/10/18 08:51:48;;;;;;;28.43;19.00;;;9.30;99.90;;;;;;5070187;28;20622;-83
2021/10/18 08:54:16;;;;;;;25.63;18.10;;;;;;;;;;5065825;28;20626;-81
2021/10/18 08:56:43;;;;;;;28.13;15.57;;;;;;;;;;5070196;28;20628;-81
2021/10/18 08:59:11;;;;;;;20.30;15.00;;;;;;;;;;5070287;28;20658;-81
2021/10/18 09:01:42;;;;;;;21.93;16.33;;;9.50;99.90;;;;;;5069517;28;20679;-81
2021/10/18 09:04:24;;;;;;;24.63;15.63;;;9.40;99.90;;;;;;5069124;28;20622;-81
2021/10/18 09:06:53;;;;;;;27.33;17.07;;;9.40;99.90;;;;;;5059741;28;20740;-83
2021/10/18 09:09:23;;;;;;;28.40;19.07;;;9.80;99.90;;;;;;5070060;28;20714;-83
2021/10/18 09:11:51;;;;;;;25.23;15.27;;;9.90;99.90;;;;;;5069630;28;20816;-81
2021/10/18 09:14:18;;;;;;;27.53;15.97;;;;;;;;;;5069676;28;21033;-81
2021/10/18 09:16:47;;;;;;;24.13;14.00;;;9.50;99.90;;;;;;5070096;28;21167;-83
2021/10/18 09:19:17;;;;;;;53.00;40.70;;;;;;;;;;5070065;28;20699;-82
2021/10/18 09:21:46;;;;;;;38.43;28.80;;;9.40;99.90;;;;;;5070263;28;20973;-83
2021/10/18 09:24:16;;;;;;;32.17;20.00;;;9.60;99.90;;;;;;5070442;28;20654;-81
2021/10/18 09:26:44;;;;;;;27.43;19.20;;;9.70;99.90;;;;;;5067627;28;20753;-83
2021/10/18 09:29:13;;;;;;;24.00;16.43;;;9.70;99.90;;;;;;5071948;28;20685;-83
2021/10/18 09:31:41;;;;;;;21.80;16.57;;;9.70;99.90;;;;;;5077560;28;20618;-83
2021/10/18 09:34:11;;;;;;;30.83;23.70;;;;;;;;;;5070093;28;20642;-83
2021/10/18 09:36:41;;;;;;;24.50;16.40;;;9.90;99.90;;;;;;5069723;28;20718;-82
2021/10/18 09:39:28;;;;;;;22.27;15.00;;;10.00;99.90;;;;;;5070704;28;20618;-83
2021/10/18 09:42:00;;;;;;;21.87;14.93;;;10.00;99.90;;;;;;5070089;28;20676;-82
2021/10/18 09:48:13;;;;;;;22.87;15.50;;;10.10;99.90;;;;;;5067660;28;20632;-82
2021/10/18 10:53:44;;;;;;;21.43;14.70;;;11.10;99.90;;;;;;5058543;28;20610;-84
2021/10/18 10:56:26;;;;;;;23.53;15.30;;;10.80;99.90;;;;;;5060574;28;21228;-84
2021/10/18 10:59:00;;;;;;;19.00;13.20;;;;;;;;;;5069994;28;20710;-84
2021/10/18 11:01:53;;;;;;;21.03;13.33;;;11.00;99.90;;;;;;5070006;28;20645;-84
2021/10/18 11:04:43;;;;;;;20.70;14.63;;;11.20;99.80;;;;;;5069077;28;21082;-84
2021/10/18 11:07:16;;;;;;;16.70;13.87;;;11.00;99.90;;;;;;5069316;28;20618;-83
2021/10/18 11:09:46;;;;;;;23.20;15.20;;;11.10;99.90;;;;;;5067447;28;20618;-83
2021/10/18 11:12:22;;;;;;;16.87;12.40;;;11.10;99.90;;;;;;5068315;28;20622;-83
2021/10/18 11:14:57;;;;;;;19.43;14.20;;;11.20;99.40;;;;;;5062160;28;20641;-82
2021/10/18 11:17:26;;;;;;;20.70;15.90;;;11.10;99.90;;;;;;5069569;28;20687;-82
2021/10/18 11:19:57;;;;;;;19.53;13.97;;;10.90;99.90;;;;;;5069376;28;20649;-83
2021/10/18 11:22:30;;;;;;;20.43;15.17;;;10.70;99.90;;;;;;5069297;28;21051;-83
2021/10/18 11:24:57;;;;;;;19.20;13.40;;;;;;;;;;5069000;28;20636;-82
2021/10/18 11:27:29;;;;;;;20.00;14.83;;;11.00;99.90;;;;;;5056409;28;21084;-83
2021/10/18 11:29:57;;;;;;;24.80;13.90;;;11.20;99.90;;;;;;5049489;28;21067;-82
2021/10/18 11:32:25;;;;;;;15.50;12.43;;;;;;;;;;5063753;28;20654;-83
2021/10/18 11:35:09;;;;;;;19.50;13.27;;;11.00;99.90;;;;;;5069126;28;20628;-82
2021/10/18 11:37:55;;;;;;;18.73;13.50;;;11.00;99.90;;;;;;5069086;28;20640;-82
2021/10/18 11:40:25;;;;;;;23.80;14.30;;;11.30;99.90;;;;;;5069433;28;20625;-82
2021/10/18 11:42:54;;;;;;;18.47;13.20;;;11.40;99.90;;;;;;5069224;28;20634;-83
2021/10/18 11:45:22;;;;;;;40.47;13.73;;;;;;;;;;5067683;28;20715;-82
2021/10/18 11:47:53;;;;;;;17.93;12.03;;;;;;;;;;5052566;28;20696;-83
2021/10/18 11:50:22;;;;;;;14.00;11.63;;;;;;;;;;5068311;28;20630;-84
2021/10/18 11:52:55;;;;;;;15.90;10.67;;;11.10;99.90;;;;;;5068668;28;20650;-84
2021/10/18 11:55:26;;;;;;;19.37;12.43;;;11.00;99.90;;;;;;5068460;28;20673;-84
2021/10/18 11:57:54;;;;;;;16.53;10.53;;;10.90;99.90;;;;;;5069318;28;20691;-81
2021/10/18 12:00:23;;;;;;;15.20;11.00;;;;;;;;;;5068035;28;20695;-81
2021/10/18 12:02:51;;;;;;;18.20;11.37;;;;;;;;;;5071694;28;20614;-81
2021/10/18 12:05:19;;;;;;;16.60;11.60;;;;;;;;;;5071976;28;20625;-81
2021/10/18 12:07:49;;;;;;;16.47;11.30;;;11.40;99.90;;;;;;5066304;28;20645;-81
2021/10/18 12:10:18;;;;;;;15.73;12.20;;;;;;;;;;5072456;28;20622;-82
2021/10/18 12:13:08;;;;;;;13.53;10.80;;;;;;;;;;5072713;28;20621;-81
2021/10/18 12:15:39;;;;;;;13.37;11.10;;;11.70;99.90;;;;;;5063956;28;20740;-82
2021/10/18 12:18:08;;;;;;;15.93;11.90;;;;;;;;;;5052104;28;21275;-82
2021/10/18 12:20:35;;;;;;;16.90;12.60;;;;;;;;;;5070309;28;21095;-82
2021/10/18 12:23:05;;;;;;;16.97;12.90;;;11.70;99.90;;;;;;5070238;28;20251;-82
2021/10/18 12:25:33;;;;;;;16.00;13.00;;;12.40;99.60;;;;;;5071553;28;20768;-82
2021/10/18 12:28:00;;;;;;;13.50;11.50;;;;;;;;;;5071072;28;20616;-82
2021/10/18 12:30:37;;;;;;;16.80;12.67;;;12.40;99.90;;;;;;5071984;28;20683;-82
2021/10/18 12:33:09;;;;;;;14.17;11.00;;;;;;;;;;5072843;28;20598;-83
2021/10/18 12:35:36;;;;;;;16.50;11.50;;;;;;;;;;5072170;28;20645;-83
2021/10/18 12:38:09;;;;;;;17.00;12.60;;;;;;;;;;5072308;28;20602;-81
2021/10/18 12:40:36;;;;;;;12.90;10.73;;;;;;;;;;5071950;28;21468;-82
2021/10/18 12:43:03;;;;;;;14.03;11.77;;;;;;;;;;5072499;28;20621;-83
2021/10/18 12:45:34;;;;;;;17.40;10.77;;;;;;;;;;5072371;28;20671;-83
2021/10/18 12:48:02;;;;;;;16.10;11.10;;;;;;;;;;5072152;28;20724;-83
2021/10/18 12:50:36;;;;;;;13.63;11.57;;;12.60;99.90;;;;;;5072152;28;20651;-82
2021/10/18 12:53:10;;;;;;;15.27;11.07;;;12.60;99.90;;;;;;5071679;28;20601;-83
2021/10/18 12:55:39;;;;;;;16.10;10.47;;;12.70;99.30;;;;;;5072094;28;20650;-82
2021/10/18 12:58:07;;;;;;;15.30;11.07;;;12.70;98.00;;;;;;5071940;28;20688;-82
2021/10/18 13:00:36;;;;;;;14.07;10.40;;;13.10;98.70;;;;;;5071879;28;20617;-82
2021/10/18 13:03:18;;;;;;;14.80;11.03;;;13.30;97.50;;;;;;5071961;28;20622;-82
2021/10/18 13:05:48;;;;;;;13.50;10.70;;;13.20;97.00;;;;;;5072123;28;21015;-83
2021/10/18 13:08:16;;;;;;;15.93;10.10;;;13.10;98.00;;;;;;5070983;28;20732;-82
2021/10/18 13:10:45;;;;;;;12.73;11.33;;;13.10;98.60;;;;;;5071870;28;20653;-82
2021/10/18 13:13:15;;;;;;;15.70;10.50;;;13.20;98.70;;;;;;5071042;28;20625;-82
2021/10/18 13:15:43;;;;;;;11.40;9.60;;;;;;;;;;5070173;28;20673;-83
2021/10/18 13:18:12;;;;;;;12.90;9.53;;;13.20;98.10;;;;;;5071474;28;20687;-82
2021/10/18 13:20:51;;;;;;;13.50;10.20;;;;;;;;;;5071964;28;20646;-83
2021/10/18 13:23:21;;;;;;;17.60;11.53;;;;;;;;;;5071733;28;20622;-82
2021/10/18 13:25:48;;;;;;;14.00;11.70;;;;;;;;;;5071441;28;20633;-83
2021/10/18 13:28:15;;;;;;;24.23;10.67;;;;;;;;;;5053474;28;20653;-82
2021/10/18 13:30:43;;;;;;;12.10;10.83;;;;;;;;;;5049911;28;20639;-84
2021/10/18 13:33:10;;;;;;;15.53;11.80;;;13.30;97.40;;;;;;5051576;28;20657;-82
2021/10/18 13:35:38;;;;;;;17.73;10.43;;;;;;;;;;5051264;28;20654;-83
2021/10/18 13:38:09;;;;;;;15.70;10.93;;;;;;;;;;5050992;28;20982;-83
2021/10/18 13:40:36;;;;;;;11.20;9.50;;;;;;;;;;5058544;28;20617;-82
2021/10/18 13:43:05;;;;;;;14.93;11.10;;;;;;;;;;5070605;28;21178;-82
2021/10/18 13:45:32;;;;;;;11.37;10.27;;;;;;;;;;5071502;28;20621;-82
2021/10/18 13:48:00;;;;;;;12.17;9.37;;;;;;;;;;5070893;28;20683;-83
2021/10/18 13:50:27;;;;;;;14.57;9.57;;;;;;;;;;5065578;28;20977;-83
2021/10/18 13:52:56;;;;;;;14.43;9.17;;;;;;;;;;5068886;28;20610;-82
2021/10/18 13:55:27;;;;;;;19.10;10.50;;;13.40;97.50;;;;;;5069793;28;20625;-82
2021/10/18 13:57:56;;;;;;;12.33;9.90;;;13.40;96.70;;;;;;5070856;28;20650;-83
2021/10/18 14:00:23;;;;;;;11.37;9.00;;;;;;;;;;5071662;28;21319;-82
2021/10/18 14:02:53;;;;;;;12.80;9.57;;;;;;;;;;5073897;28;20684;-83
2021/10/18 14:05:50;;;;;;;15.00;9.90;;;;;;;;;;5070433;28;20609;-83
2021/10/18 14:08:21;;;;;;;11.83;8.80;;;;;;;;;;5067914;28;20638;-83
2021/10/18 14:13:38;;;;;;;12.37;10.03;;;;;;;;;;5053106;28;20680;-82
2021/10/18 14:16:05;;;;;;;12.80;10.37;;;;;;;;;;5069793;28;20689;-83
2021/10/18 14:18:33;;;;;;;12.77;9.97;;;;;;;;;;5048266;28;21174;-83
2021/10/18 14:21:00;;;;;;;11.63;9.20;;;;;;;;;;5061154;28;20653;-83
2021/10/18 14:23:27;;;;;;;14.20;10.30;;;;;;;;;;5065573;28;20623;-83
2021/10/18 14:25:55;;;;;;;16.03;10.77;;;;;;;;;;5068369;28;20657;-83
2021/10/18 14:28:23;;;;;;;17.37;11.93;;;;;;;;;;5070351;28;20716;-83
2021/10/18 14:30:50;;;;;;;20.27;13.73;;;;;;;;;;5069975;28;20739;-83
2021/10/18 14:33:17;;;;;;;15.80;11.80;;;;;;;;;;5070748;28;20620;-83
2021/10/18 14:35:44;;;;;;;15.90;11.37;;;;;;;;;;5069393;28;20654;-82
2021/10/18 14:38:11;;;;;;;14.60;11.00;;;;;;;;;;5070092;28;20739;-83
2021/10/18 14:40:38;;;;;;;13.10;10.60;;;;;;;;;;5070288;28;20613;-83
2021/10/18 14:43:07;;;;;;;17.80;11.70;;;;;;;;;;5069579;28;20622;-83
2021/10/18 14:45:34;;;;;;;14.07;11.30;;;;;;;;;;5070109;28;20653;-83
2021/10/18 14:48:02;;;;;;;17.57;12.97;;;;;;;;;;5071224;28;20625;-83
2021/10/18 14:50:29;;;;;;;16.00;10.90;;;;;;;;;;5089737;28;20613;-83
2021/10/18 14:52:56;;;;;;;17.33;11.63;;;;;;;;;;5089222;28;20624;-83
2021/10/18 14:55:23;;;;;;;13.10;9.97;;;;;;;;;;5085999;28;21251;-83
2021/10/18 14:57:51;;;;;;;15.27;11.90;;;;;;;;;;5069143;28;21081;-83
2021/10/18 15:00:19;;;;;;;14.97;11.50;;;;;;;;;;5070222;28;20628;-83
2021/10/18 15:02:48;;;;;;;14.53;11.30;;;;;;;;;;5070057;28;20618;-83
2021/10/18 15:05:15;;;;;;;17.33;11.57;;;;;;;;;;5065107;28;20638;-82